createdAt,value
2019-06-27T00:00:26.028Z,22.95
2019-06-27T00:02:58.052Z,24.18
2019-06-27T00:05:29.978Z,24.15
2019-06-27T00:08:02.099Z,29.27
2019-06-27T00:10:34.614Z,29.45
2019-06-27T00:13:06.615Z,28.32
2019-06-27T00:15:38.660Z,28.20
2019-06-27T00:18:10.666Z,31.95
2019-06-27T00:20:42.711Z,31.27
2019-06-27T00:23:14.632Z,34.05
2019-06-27T00:25:46.676Z,37.23
2019-06-27T00:28:18.661Z,46.55
2019-06-27T00:30:50.648Z,39.45
2019-06-27T00:33:22.606Z,39.08
2019-06-27T00:35:54.590Z,39.67
2019-06-27T00:38:26.567Z,38.45
2019-06-27T00:40:58.548Z,40.35
2019-06-27T00:43:30.573Z,43.08
2019-06-27T00:46:02.615Z,45.48
2019-06-27T00:48:34.571Z,43.65
2019-06-27T00:51:06.544Z,44.77
2019-06-27T00:53:38.517Z,44.20
2019-06-27T00:56:10.487Z,43.70
2019-06-27T00:58:42.459Z,39.53
2019-06-27T01:01:14.477Z,37.85
2019-06-27T01:03:46.444Z,39.42
2019-06-27T01:06:20.025Z,39.00
2019-06-27T01:08:52.000Z,42.45
2019-06-27T01:11:23.973Z,39.67
2019-06-27T01:13:55.937Z,37.70
2019-06-27T01:16:27.926Z,40.03
2019-06-27T01:18:59.929Z,36.40
2019-06-27T01:21:31.912Z,39.98
2019-06-27T01:24:03.880Z,39.10
2019-06-27T01:26:35.860Z,37.98
2019-06-27T01:29:07.831Z,34.18
2019-06-27T01:31:39.810Z,32.63
2019-06-27T01:34:11.816Z,31.33
2019-06-27T01:36:43.782Z,28.70
2019-06-27T01:39:15.755Z,28.12
2019-06-27T01:41:47.736Z,27.82
2019-06-27T01:44:38.641Z,27.90
2019-06-27T01:47:10.742Z,27.52
2019-06-27T01:49:42.706Z,26.82
2019-06-27T01:52:14.699Z,23.38
2019-06-27T01:54:46.652Z,23.67
2019-06-27T01:57:18.699Z,23.25
2019-06-27T01:59:50.677Z,23.15
2019-06-27T02:02:22.646Z,22.52
2019-06-27T02:04:54.630Z,20.97
2019-06-27T02:07:26.595Z,21.82
2019-06-27T02:09:58.596Z,21.90
2019-06-27T02:12:30.562Z,21.52
2019-06-27T02:15:02.691Z,22.48
2019-06-27T02:17:34.659Z,23.87
2019-06-27T02:20:06.897Z,22.95
2019-06-27T02:22:38.840Z,23.55
2019-06-27T02:25:11.717Z,23.52
2019-06-27T02:27:43.665Z,22.85
2019-06-27T02:30:20.979Z,22.35
2019-06-27T02:32:52.934Z,23.40
2019-06-27T02:35:24.930Z,22.42
2019-06-27T02:37:56.898Z,22.00
2019-06-27T02:40:28.884Z,22.45
2019-06-27T02:43:00.856Z,22.02
2019-06-27T02:45:32.828Z,22.10
2019-06-27T02:48:04.774Z,21.57
2019-06-27T02:50:36.760Z,22.22
2019-06-27T02:53:08.733Z,21.05
2019-06-27T02:55:40.705Z,20.37
2019-06-27T02:58:28.595Z,19.17
2019-06-27T03:00:46.555Z,19.73
2019-06-27T03:03:18.508Z,19.73
2019-06-27T03:05:50.496Z,19.65
2019-06-27T03:08:22.446Z,18.73
2019-06-27T03:10:54.477Z,20.23
2019-06-27T03:13:26.425Z,20.30
2019-06-27T03:15:58.403Z,20.20
2019-06-27T03:18:30.375Z,18.92
2019-06-27T03:21:02.355Z,19.02
2019-06-27T03:23:34.298Z,19.55
2019-06-27T03:26:06.558Z,19.52
2019-06-27T03:28:52.261Z,19.15
2019-06-27T03:31:12.546Z,18.90
2019-06-27T03:33:44.526Z,19.80
2019-06-27T03:36:16.505Z,19.45
2019-06-27T03:38:48.477Z,17.77
2019-06-27T03:41:20.451Z,19.35
2019-06-27T03:43:52.411Z,19.45
2019-06-27T03:46:24.470Z,18.27
2019-06-27T03:48:56.429Z,18.62
2019-06-27T03:51:28.452Z,19.10
2019-06-27T03:54:00.421Z,19.17
2019-06-27T03:56:32.430Z,19.05
2019-06-27T03:59:12.472Z,19.65
2019-06-27T04:01:38.269Z,20.25
2019-06-27T04:04:10.307Z,19.07
2019-06-27T04:06:42.289Z,18.98
2019-06-27T04:09:14.266Z,18.23
2019-06-27T04:11:46.414Z,18.92
2019-06-27T04:14:18.395Z,17.32
2019-06-27T04:16:50.393Z,18.10
2019-06-27T04:19:22.344Z,18.35
2019-06-27T04:21:54.641Z,18.48
2019-06-27T04:24:26.611Z,17.95
2019-06-27T04:26:58.624Z,16.87
2019-06-27T04:29:34.120Z,17.20
2019-06-27T04:32:04.468Z,17.40
2019-06-27T04:34:36.435Z,16.60
2019-06-27T04:37:08.568Z,18.05
2019-06-27T04:39:40.528Z,18.20
2019-06-27T04:42:12.697Z,17.57
2019-06-27T04:44:44.776Z,17.98
2019-06-27T04:47:16.875Z,17.57
2019-06-27T04:49:48.974Z,19.55
2019-06-27T04:52:21.001Z,17.55
2019-06-27T04:54:54.280Z,18.30
2019-06-27T04:57:26.354Z,18.35
2019-06-27T04:59:58.307Z,17.57
2019-06-27T05:02:30.981Z,17.02
2019-06-27T05:05:03.088Z,17.40
2019-06-27T05:07:35.089Z,17.42
2019-06-27T05:10:07.058Z,17.67
2019-06-27T05:12:39.154Z,17.07
2019-06-27T05:15:11.819Z,17.82
2019-06-27T05:17:43.803Z,17.45
2019-06-27T05:20:16.670Z,17.65
2019-06-27T05:22:48.688Z,17.87
2019-06-27T05:25:20.648Z,18.25
2019-06-27T05:27:52.898Z,17.57
2019-06-27T05:30:24.867Z,17.30
2019-06-27T05:32:56.859Z,16.07
2019-06-27T05:35:28.822Z,16.60
2019-06-27T05:38:00.852Z,16.67
2019-06-27T05:40:32.836Z,16.80
2019-06-27T05:43:05.672Z,16.60
2019-06-27T05:45:37.644Z,16.27
2019-06-27T05:48:09.672Z,17.15
2019-06-27T05:50:41.710Z,16.20
2019-06-27T05:53:13.649Z,15.32
2019-06-27T05:55:45.742Z,17.07
2019-06-27T05:58:17.725Z,16.32
2019-06-27T06:00:49.682Z,16.02
2019-06-27T06:03:21.677Z,16.93
2019-06-27T06:05:53.652Z,16.80
2019-06-27T06:08:25.626Z,16.35
2019-06-27T06:10:57.576Z,16.77
2019-06-27T06:13:29.562Z,16.40
2019-06-27T06:16:01.676Z,16.40
2019-06-27T06:18:33.707Z,16.32
2019-06-27T06:21:05.691Z,17.35
2019-06-27T06:23:37.696Z,16.50
2019-06-27T06:26:09.661Z,16.73
2019-06-27T06:28:41.671Z,16.17
2019-06-27T06:31:13.668Z,16.35
2019-06-27T06:33:45.652Z,15.98
2019-06-27T06:36:17.573Z,17.10
2019-06-27T06:38:49.757Z,16.23
2019-06-27T06:41:21.743Z,15.85
2019-06-27T06:43:53.799Z,16.07
2019-06-27T06:46:25.771Z,16.60
2019-06-27T06:48:57.835Z,15.30
2019-06-27T06:51:29.837Z,16.15
2019-06-27T06:54:02.341Z,16.85
2019-06-27T06:56:34.404Z,16.90
2019-06-27T06:59:06.401Z,16.45
2019-06-27T07:01:38.368Z,16.00
2019-06-27T07:04:10.340Z,15.80
2019-06-27T07:06:42.331Z,16.57
2019-06-27T07:09:14.338Z,17.57
2019-06-27T07:11:46.298Z,16.30
2019-06-27T07:14:18.274Z,16.17
2019-06-27T07:16:50.253Z,16.48
2019-06-27T07:19:22.232Z,16.35
2019-06-27T07:21:54.187Z,16.52
2019-06-27T07:24:26.180Z,16.30
2019-06-27T07:26:58.124Z,16.62
2019-06-27T07:29:30.115Z,15.80
2019-06-27T07:32:02.081Z,15.85
2019-06-27T07:34:34.061Z,16.00
2019-06-27T07:37:06.054Z,16.30
2019-06-27T07:39:38.046Z,15.10
2019-06-27T07:42:10.017Z,15.68
2019-06-27T07:44:42.009Z,15.38
2019-06-27T07:47:13.970Z,16.20
2019-06-27T07:49:45.937Z,14.87
2019-06-27T07:52:17.906Z,14.05
2019-06-27T07:54:49.967Z,14.43
2019-06-27T07:57:21.912Z,14.68
2019-06-27T07:59:53.900Z,14.00
2019-06-27T08:02:25.923Z,13.50
2019-06-27T08:04:57.971Z,14.23
2019-06-27T08:07:29.957Z,14.65
2019-06-27T08:10:02.083Z,13.98
2019-06-27T08:12:34.222Z,14.07
2019-06-27T08:15:06.502Z,14.30
2019-06-27T08:17:38.495Z,14.78
2019-06-27T08:20:10.429Z,14.30
2019-06-27T08:22:42.413Z,14.13
2019-06-27T08:25:14.567Z,14.53
2019-06-27T08:27:46.562Z,13.43
2019-06-27T08:30:18.919Z,15.10
2019-06-27T08:32:50.910Z,13.80
2019-06-27T08:35:22.872Z,14.78
2019-06-27T08:37:54.877Z,14.23
2019-06-27T08:40:26.918Z,14.15
2019-06-27T08:42:58.900Z,14.70
2019-06-27T08:45:30.915Z,14.68
2019-06-27T08:48:02.946Z,13.85
2019-06-27T08:50:34.909Z,16.07
2019-06-27T08:53:06.892Z,15.45
2019-06-27T08:55:38.836Z,15.20
2019-06-27T08:58:10.846Z,14.83
2019-06-27T09:00:45.820Z,14.93
2019-06-27T09:03:16.885Z,15.15
2019-06-27T09:05:48.834Z,14.95
2019-06-27T09:08:20.824Z,15.23
2019-06-27T09:10:52.819Z,14.58
2019-06-27T09:13:24.833Z,14.40
2019-06-27T09:15:56.841Z,14.35
2019-06-27T09:18:28.820Z,14.40
2019-06-27T09:21:00.862Z,15.35
2019-06-27T09:23:32.912Z,13.90
2019-06-27T09:26:04.883Z,14.35
2019-06-27T09:28:36.868Z,14.65
2019-06-27T09:31:08.873Z,14.10
2019-06-27T09:33:40.840Z,13.70
2019-06-27T09:36:12.807Z,14.10
2019-06-27T09:38:44.783Z,13.70
2019-06-27T09:41:16.833Z,13.43
2019-06-27T09:43:48.959Z,14.03
2019-06-27T09:46:20.938Z,14.73
2019-06-27T09:48:52.920Z,14.60
2019-06-27T09:51:24.880Z,13.32
2019-06-27T09:53:56.854Z,14.18
2019-06-27T09:56:28.807Z,14.13
2019-06-27T09:59:00.786Z,13.72
2019-06-27T10:01:32.755Z,14.10
2019-06-27T10:04:04.814Z,14.07
2019-06-27T10:06:36.772Z,13.48
2019-06-27T10:09:08.768Z,14.43
2019-06-27T10:11:40.734Z,13.32
2019-06-27T10:14:12.751Z,13.65
2019-06-27T10:16:44.750Z,13.95
2019-06-27T10:19:16.846Z,14.60
2019-06-27T10:21:48.815Z,14.87
2019-06-27T10:24:20.823Z,14.45
2019-06-27T10:26:52.828Z,14.75
2019-06-27T10:29:24.824Z,14.25
2019-06-27T10:31:56.807Z,14.40
2019-06-27T10:34:28.790Z,15.15
2019-06-27T10:37:00.726Z,14.20
2019-06-27T10:39:32.763Z,13.98
2019-06-27T10:42:04.723Z,13.68
2019-06-27T10:44:36.751Z,14.05
2019-06-27T10:47:08.695Z,14.70
2019-06-27T10:49:40.687Z,15.35
2019-06-27T10:52:12.756Z,13.93
2019-06-27T10:54:44.733Z,14.58
2019-06-27T10:57:16.820Z,14.35
2019-06-27T10:59:48.764Z,15.25
2019-06-27T11:02:20.812Z,14.23
2019-06-27T11:04:52.774Z,14.65
2019-06-27T11:07:24.876Z,14.30
2019-06-27T11:09:56.873Z,14.28
2019-06-27T11:12:28.963Z,15.45
2019-06-27T11:15:00.941Z,14.40
2019-06-27T11:17:32.950Z,14.50
2019-06-27T11:20:04.931Z,14.03
2019-06-27T11:22:36.928Z,15.03
2019-06-27T11:25:09.263Z,14.73
2019-06-27T11:27:41.244Z,14.55
2019-06-27T11:30:13.320Z,14.78
2019-06-27T11:32:45.329Z,14.65
2019-06-27T11:35:17.321Z,14.70
2019-06-27T11:37:49.308Z,15.30
2019-06-27T11:40:23.100Z,14.60
2019-06-27T11:42:55.109Z,13.98
2019-06-27T11:45:27.128Z,13.85
2019-06-27T11:47:59.176Z,15.32
2019-06-27T11:50:31.140Z,14.63
2019-06-27T11:53:03.094Z,14.60
2019-06-27T11:55:35.128Z,15.08
2019-06-27T11:58:07.249Z,14.10
2019-06-27T12:00:39.273Z,14.90
2019-06-27T12:03:11.260Z,14.70
2019-06-27T12:05:43.264Z,15.00
2019-06-27T12:08:15.245Z,14.10
2019-06-27T12:10:47.286Z,14.40
2019-06-27T12:13:19.209Z,14.87
2019-06-27T12:15:51.763Z,14.10
2019-06-27T12:18:23.881Z,14.55
2019-06-27T12:20:55.873Z,14.07
2019-06-27T12:23:27.845Z,14.85
2019-06-27T12:25:59.838Z,14.40
2019-06-27T12:28:31.892Z,14.20
2019-06-27T12:31:19.456Z,14.18
2019-06-27T12:33:37.775Z,13.35
2019-06-27T12:36:09.795Z,12.95
2019-06-27T12:38:41.800Z,13.32
2019-06-27T12:41:13.827Z,13.45
2019-06-27T12:43:45.808Z,12.85
2019-06-27T12:46:17.800Z,13.10
2019-06-27T12:48:49.795Z,12.55
2019-06-27T12:51:21.919Z,12.80
2019-06-27T12:53:56.049Z,10.90
2019-06-27T12:56:27.867Z,12.45
2019-06-27T12:58:59.868Z,12.07
2019-06-27T13:01:31.842Z,11.73
2019-06-27T13:04:03.970Z,11.57
2019-06-27T13:06:35.966Z,11.30
2019-06-27T13:09:07.995Z,12.33
2019-06-27T13:11:39.970Z,11.25
2019-06-27T13:14:11.986Z,11.70
2019-06-27T13:16:43.956Z,11.55
2019-06-27T13:19:15.940Z,12.07
2019-06-27T13:21:47.944Z,11.05
2019-06-27T13:24:19.949Z,11.48
2019-06-27T13:26:51.942Z,10.75
2019-06-27T13:29:26.830Z,12.28
2019-06-27T13:31:57.851Z,11.73
2019-06-27T13:34:39.944Z,10.35
2019-06-27T13:37:03.846Z,11.15
2019-06-27T13:39:35.863Z,11.22
2019-06-27T13:42:07.905Z,10.88
2019-06-27T13:44:40.985Z,11.08
2019-06-27T13:47:12.992Z,11.30
2019-06-27T13:49:45.475Z,10.68
2019-06-27T13:52:17.543Z,10.28
2019-06-27T13:54:49.510Z,10.72
2019-06-27T13:57:21.811Z,10.30
2019-06-27T13:59:53.819Z,9.83
2019-06-27T14:02:25.806Z,10.00
2019-06-27T14:04:58.046Z,9.90
2019-06-27T14:07:30.071Z,9.65
2019-06-27T14:10:02.126Z,9.48
2019-06-27T14:12:34.117Z,9.95
2019-06-27T14:15:06.444Z,10.38
2019-06-27T14:17:38.461Z,9.98
2019-06-27T14:20:10.519Z,9.98
2019-06-27T14:22:42.500Z,9.95
2019-06-27T14:25:14.720Z,9.55
2019-06-27T14:27:46.715Z,9.48
2019-06-27T14:30:18.918Z,9.15
2019-06-27T14:32:53.221Z,9.48
2019-06-27T14:35:24.789Z,9.45
2019-06-27T14:37:56.760Z,9.98
2019-06-27T14:40:28.727Z,9.23
2019-06-27T14:43:00.706Z,9.40
2019-06-27T14:45:32.747Z,9.48
2019-06-27T14:48:04.717Z,8.90
2019-06-27T14:50:36.740Z,8.35
2019-06-27T14:53:08.749Z,8.98
2019-06-27T14:55:40.748Z,8.48
2019-06-27T14:58:12.790Z,8.33
2019-06-27T15:00:44.813Z,9.15
2019-06-27T15:03:16.789Z,8.55
2019-06-27T15:05:48.759Z,8.08
2019-06-27T15:08:20.716Z,8.00
2019-06-27T15:10:52.708Z,8.43
2019-06-27T15:13:24.676Z,7.60
2019-06-27T15:16:10.780Z,7.75
2019-06-27T15:18:30.612Z,7.67
2019-06-27T15:21:02.653Z,7.65
2019-06-27T15:23:34.623Z,7.85
2019-06-27T15:26:06.721Z,7.50
2019-06-27T15:28:38.764Z,7.45
2019-06-27T15:31:10.765Z,8.08
2019-06-27T15:33:42.737Z,8.58
2019-06-27T15:36:14.874Z,7.97
2019-06-27T15:38:46.846Z,8.13
2019-06-27T15:41:18.981Z,8.18
2019-06-27T15:43:50.992Z,9.08
2019-06-27T15:46:23.080Z,9.03
2019-06-27T15:48:55.021Z,9.28
2019-06-27T15:51:27.078Z,9.30
2019-06-27T15:53:59.045Z,9.98
2019-06-27T15:56:31.155Z,9.70
2019-06-27T15:59:03.881Z,10.05
2019-06-27T16:01:36.169Z,9.70
2019-06-27T16:04:08.153Z,9.65
2019-06-27T16:06:40.198Z,9.55
2019-06-27T16:09:12.191Z,11.00
2019-06-27T16:11:44.338Z,10.95
2019-06-27T16:14:16.367Z,10.40
2019-06-27T16:16:48.370Z,11.57
2019-06-27T16:19:20.355Z,10.80
2019-06-27T16:21:52.355Z,11.50
2019-06-27T16:24:24.361Z,11.55
2019-06-27T16:26:56.425Z,11.22
2019-06-27T16:29:28.453Z,11.08
2019-06-27T16:32:00.672Z,11.68
2019-06-27T16:34:32.679Z,11.38
2019-06-27T16:37:04.843Z,12.10
2019-06-27T16:39:39.005Z,12.00
2019-06-27T16:42:10.804Z,12.50
2019-06-27T16:44:42.787Z,11.57
2019-06-27T16:47:14.972Z,11.68
2019-06-27T16:49:46.909Z,11.33
2019-06-27T16:52:18.949Z,11.43
2019-06-27T16:54:50.925Z,11.15
2019-06-27T16:57:23.024Z,10.80
2019-06-27T16:59:55.014Z,10.60
2019-06-27T17:02:27.181Z,10.15
2019-06-27T17:04:59.156Z,10.45
2019-06-27T17:07:31.181Z,9.78
2019-06-27T17:10:03.429Z,9.43
2019-06-27T17:12:35.416Z,9.38
2019-06-27T17:15:08.716Z,8.90
2019-06-27T17:17:40.738Z,8.00
2019-06-27T17:20:12.834Z,8.10
2019-06-27T17:22:44.858Z,7.50
2019-06-27T17:25:16.837Z,7.28
2019-06-27T17:27:48.838Z,7.37
2019-06-27T17:30:21.368Z,7.37
2019-06-27T17:32:53.398Z,6.75
2019-06-27T17:35:25.420Z,6.67
2019-06-27T17:37:57.437Z,6.53
2019-06-27T17:40:29.537Z,6.42
2019-06-27T17:43:01.596Z,5.67
2019-06-27T17:45:33.575Z,5.58
2019-06-27T17:48:05.592Z,5.67
2019-06-27T17:50:37.590Z,5.28
2019-06-27T17:53:09.604Z,5.28
2019-06-27T17:55:41.639Z,4.92
2019-06-27T17:58:13.638Z,5.03
2019-06-27T18:00:45.729Z,5.10
2019-06-27T18:03:17.753Z,5.33
2019-06-27T18:05:49.836Z,5.22
2019-06-27T18:08:21.818Z,4.78
2019-06-27T18:10:53.821Z,4.97
2019-06-27T18:13:25.803Z,5.03
2019-06-27T18:15:57.853Z,4.72
2019-06-27T18:18:29.877Z,10.43
2019-06-27T18:21:01.895Z,7.50
2019-06-27T18:23:33.917Z,5.95
2019-06-27T18:26:05.935Z,5.67
2019-06-27T18:28:37.963Z,5.97
2019-06-27T18:31:09.953Z,4.97
2019-06-27T18:33:41.955Z,4.45
2019-06-27T18:36:13.951Z,3.92
2019-06-27T18:38:45.985Z,3.72
2019-06-27T18:41:17.983Z,3.70
2019-06-27T18:43:49.980Z,3.72
2019-06-27T18:46:22.000Z,3.72
2019-06-27T18:48:54.046Z,3.30
2019-06-27T18:51:26.098Z,3.67
2019-06-27T18:54:00.931Z,3.52
2019-06-27T18:56:32.023Z,3.00
2019-06-27T18:59:04.088Z,3.00
2019-06-27T19:01:36.234Z,2.95
2019-06-27T19:04:08.220Z,3.40
2019-06-27T19:06:40.235Z,3.00
2019-06-27T19:09:12.241Z,3.00
2019-06-27T19:11:44.293Z,3.12
2019-06-27T19:14:16.303Z,3.02
2019-06-27T19:16:48.296Z,3.10
2019-06-27T19:19:23.241Z,3.50
2019-06-27T19:22:23.707Z,2.98
2019-06-27T19:25:06.508Z,3.02
2019-06-27T19:27:38.519Z,2.80
2019-06-27T19:30:10.746Z,3.87
2019-06-27T19:32:42.891Z,3.95
2019-06-27T19:35:14.913Z,3.50
2019-06-27T19:38:00.966Z,2.77
2019-06-27T19:40:20.933Z,3.20
2019-06-27T19:42:52.952Z,2.77
2019-06-27T19:45:24.977Z,2.67
2019-06-27T19:47:56.992Z,2.50
2019-06-27T19:50:28.983Z,3.00
2019-06-27T19:53:01.051Z,3.10
2019-06-27T19:55:33.056Z,2.42
2019-06-27T19:58:05.091Z,3.67
2019-06-27T20:00:37.172Z,2.50
2019-06-27T20:03:09.176Z,2.60
2019-06-27T20:05:41.146Z,3.05
2019-06-27T20:08:19.449Z,2.52
2019-06-27T20:10:47.110Z,2.80
2019-06-27T20:13:19.126Z,2.65
2019-06-27T20:15:51.104Z,2.90
2019-06-27T20:18:23.143Z,2.80
2019-06-27T20:20:55.164Z,3.27
2019-06-27T20:23:27.254Z,3.20
2019-06-27T20:25:59.219Z,2.95
2019-06-27T20:28:31.263Z,3.55
2019-06-27T20:31:03.252Z,3.40
2019-06-27T20:33:35.242Z,3.50
2019-06-27T20:36:07.274Z,3.17
2019-06-27T20:38:39.337Z,3.15
2019-06-27T20:41:11.355Z,3.50
2019-06-27T20:43:43.421Z,3.27
2019-06-27T20:46:15.416Z,3.10
2019-06-27T20:48:47.442Z,3.42
2019-06-27T20:51:19.503Z,3.30
2019-06-27T20:53:51.520Z,2.90
2019-06-27T20:56:23.532Z,3.00
2019-06-27T20:58:55.570Z,3.27
2019-06-27T21:01:30.528Z,3.52
2019-06-27T21:04:01.583Z,3.52
2019-06-27T21:06:33.566Z,3.40
2019-06-27T21:09:05.615Z,2.83
2019-06-27T21:11:37.639Z,3.70
2019-06-27T21:14:09.708Z,3.00
2019-06-27T21:16:41.733Z,3.42
2019-06-27T21:19:13.712Z,3.33
2019-06-27T21:21:45.746Z,3.52
2019-06-27T21:24:17.770Z,3.15
2019-06-27T21:26:49.804Z,3.20
2019-06-27T21:29:21.775Z,3.42
2019-06-27T21:31:53.895Z,3.40
2019-06-27T21:34:25.899Z,3.00
2019-06-27T21:36:57.880Z,2.80
2019-06-27T21:39:29.859Z,3.65
2019-06-27T21:42:01.906Z,3.17
2019-06-27T21:44:33.895Z,3.08
2019-06-27T21:47:05.933Z,3.33
2019-06-27T21:49:37.974Z,3.08
2019-06-27T21:52:10.074Z,3.10
2019-06-27T21:54:42.074Z,2.80
2019-06-27T21:57:14.272Z,3.25
2019-06-27T21:59:46.379Z,2.65
2019-06-27T22:02:18.399Z,3.02
2019-06-27T22:04:50.365Z,3.20
2019-06-27T22:07:22.380Z,3.25
2019-06-27T22:09:54.356Z,2.83
2019-06-27T22:12:26.387Z,3.05
2019-06-27T22:14:58.388Z,2.87
2019-06-27T22:17:30.417Z,2.80
2019-06-27T22:20:14.595Z,2.87
2019-06-27T22:22:36.290Z,3.15
2019-06-27T22:25:09.059Z,3.15
2019-06-27T22:27:41.003Z,3.10
2019-06-27T22:30:13.333Z,3.33
2019-06-27T22:32:45.379Z,3.37
2019-06-27T22:35:17.380Z,3.02
2019-06-27T22:38:07.733Z,3.60
2019-06-27T22:40:58.027Z,2.85
2019-06-27T22:43:48.174Z,3.33
2019-06-27T22:46:38.397Z,3.37
2019-06-27T22:49:10.789Z,3.20
2019-06-27T22:52:02.648Z,3.15
2019-06-27T22:54:35.920Z,3.20
2019-06-27T22:57:07.924Z,3.08
2019-06-27T22:59:39.953Z,3.30
2019-06-27T23:02:11.949Z,3.15
2019-06-27T23:04:43.937Z,3.30
2019-06-27T23:07:15.892Z,3.47
2019-06-27T23:09:56.998Z,3.30
2019-06-27T23:12:21.751Z,3.10
2019-06-27T23:14:53.780Z,3.17
2019-06-27T23:17:25.738Z,3.17
2019-06-27T23:19:57.828Z,3.33
2019-06-27T23:22:29.764Z,3.20
2019-06-27T23:25:01.864Z,3.20
2019-06-27T23:27:33.964Z,3.25
2019-06-27T23:30:06.341Z,3.52
2019-06-27T23:32:38.450Z,2.98
2019-06-27T23:35:10.763Z,3.15
2019-06-27T23:37:42.701Z,3.37
2019-06-27T23:40:15.271Z,3.30
2019-06-27T23:42:47.304Z,3.30
2019-06-27T23:45:19.387Z,3.27
2019-06-27T23:47:51.330Z,3.40
2019-06-27T23:50:23.302Z,3.45
2019-06-27T23:52:55.270Z,3.50
2019-06-27T23:55:27.218Z,3.83
2019-06-27T23:57:59.191Z,3.83
